Latest Weather Observations for Omeo

IDV60801

Issued at 11:02 pm EDT Friday 30 January 2015 (issued every 30 minutes, with the page automatically refreshed every 10 minutes)

About weather observations | Map of weather stations | Latest weather observations for VIC | Other Formats
Station Details ID: 083090 Name: OMEO Lat: -37.10 Lon: 147.60 Height: 689.8 m
Data from the previous 72 hours. | See also: Recent months at Omeo
Date/Time
EDT
Temp
°C
App
Temp
°C
Dew
Point
Rel
Hum
%
Delta-T
°C
Wind Press
QNH
hPa
Press
MSL
hPa
Rain
since 9 am
mm
Dir
 
Spd
km/h
Gust
km/h
Spd
kts
Gust
kts
30/11:00pm 10.1 8.2 9.2 94 0.5 SE 9 13 5 7 1012.5 1009.5 4.8
30/10:30pm 10.1 7.5 9.2 94 0.5 SE 13 19 7 10 1012.5 1009.5 4.6
30/10:00pm 10.2 8.3 9.1 93 0.6 SE 9 15 5 8 1012.7 1009.7 4.6
30/09:30pm 10.2 8.3 9.0 92 0.6 SE 9 13 5 7 1012.7 1009.7 4.6
30/09:00pm 10.4 8.5 9.0 91 0.7 SSE 9 13 5 7 1012.7 1009.7 4.6
30/08:30pm 10.7 9.3 9.0 89 0.9 S 6 11 3 6 1012.6 1009.6 4.6
30/08:00pm 10.9 9.0 9.0 88 1.0 SE 9 11 5 6 1012.5 1009.5 4.6
30/07:30pm 11.4 9.4 8.8 84 1.3 SSW 9 17 5 9 1012.5 1009.5 4.6
30/07:00pm 11.8 9.7 9.9 88 1.0 S 11 20 6 11 1012.2 1009.2 4.6
30/06:30pm 11.4 9.4 10.0 91 0.7 SSE 11 19 6 10 1012.2 1009.2 4.6
30/06:00pm 11.3 9.5 9.6 89 0.9 SSE 9 17 5 9 1012.2 1009.2 4.2
30/05:30pm 11.8 9.3 9.7 87 1.1 S 13 24 7 13 1012.2 1009.2 3.8
30/05:00pm 12.2 9.9 10.3 88 1.0 S 13 20 7 11 1012.4 1009.4 3.8
30/04:30pm 11.3 7.7 9.7 90 0.8 SSW 19 28 10 15 1012.6 1009.6 3.8
30/04:00pm 11.0 8.1 9.6 91 0.7 SSW 15 26 8 14 1012.7 1009.7 3.0
30/03:30pm 11.0 8.0 9.3 89 0.9 S 15 30 8 16 1012.8 1009.8 1.6
30/03:00pm 11.5 8.9 9.2 86 1.2 S 13 26 7 14 1012.9 1009.9 0.8
30/02:30pm 13.8 10.6 8.6 71 2.7 S 15 26 8 14 1012.8 1009.8 0.0
30/02:00pm 12.6 8.6 8.3 75 2.2 SSW 19 33 10 18 1013.0 1010.0 0.0
30/01:30pm 12.9 8.7 7.6 70 2.7 SSW 19 32 10 17 1013.1 1010.1 0.0
30/01:00pm 13.5 9.4 7.9 69 2.9 SSW 19 32 10 17 1013.1 1010.1 0.0
30/12:30pm 12.7 8.6 7.8 72 2.5 SSW 19 28 10 15 1013.3 1010.3 0.0
30/12:00pm 12.5 8.8 7.8 73 2.4 SSW 17 28 9 15 1013.6 1010.6 0.0
30/11:30am 12.5 9.5 7.6 72 2.5 SSW 13 22 7 12 1013.8 1010.8 0.0
30/11:00am 12.9 9.0 7.1 68 2.9 SSE 17 28 9 15 1013.9 1010.9 0.0
30/10:30am 12.5 8.7 7.4 71 2.6 S 17 28 9 15 1014.1 1011.1 0.0
30/10:00am 12.5 8.7 7.4 71 2.6 S 17 28 9 15 1014.1 1011.1 0.0
30/09:30am 12.0 9.0 7.5 74 2.3 S 13 19 7 10 1014.3 1011.3 0.0
30/09:00am 11.8 8.0 7.5 75 2.2 SSE 17 30 9 16 1014.5 1011.5 6.0
30/08:30am 10.2 6.8 7.6 84 1.3 SSE 15 30 8 16 1014.4 1011.4 6.0
30/08:00am 9.5 6.2 7.9 90 0.8 SE 15 24 8 13 1014.4 1011.4 6.0
30/07:30am 9.3 6.5 6.9 85 1.2 SSE 11 20 6 11 1014.2 1011.2 5.8
30/07:00am 9.0 6.2 6.8 86 1.1 S 11 19 6 10 1014.1 1011.1 5.8
30/06:30am 9.0 5.7 6.4 84 1.3 SSE 13 20 7 11 1014.1 1011.1 5.8
30/06:00am 8.5 5.6 6.3 86 1.1 S 11 17 6 9 1014.0 1011.0 5.8
30/05:30am 8.6 5.7 6.4 86 1.1 S 11 17 6 9 1013.9 1010.9 5.8
30/05:00am 8.6 6.0 6.2 85 1.1 S 9 17 5 9 1014.0 1011.0 5.8
30/04:30am 8.8 6.0 6.9 88 0.9 S 11 20 6 11 1014.2 1011.2 5.8
30/04:00am 8.8 5.7 7.1 89 0.8 S 13 24 7 13 1014.3 1011.3 5.8
30/03:30am 8.3 6.4 6.8 90 0.7 SSE 6 11 3 6 1014.6 1011.6 5.8
30/03:00am 8.5 6.1 7.1 91 0.7 SSW 9 17 5 9 1015.0 1012.0 5.8
30/02:30am 8.0 5.9 6.6 91 0.7 S 7 11 4 6 1015.4 1012.4 5.8
30/02:00am 8.3 5.9 6.9 91 0.7 SSW 9 17 5 9 1015.7 1012.7 5.8
30/01:30am 8.4 6.4 7.2 92 0.6 S 7 9 4 5 1016.0 1013.1 5.8
30/01:00am 8.5 6.2 7.3 92 0.6 S 9 13 5 7 1016.3 1013.4 5.8
30/12:30am 8.6 6.3 7.4 92 0.6 SSW 9 13 5 7 1016.7 1013.7 5.8
30/12:00am 8.9 6.2 7.5 91 0.7 SSW 11 19 6 10 1016.8 1013.8 5.4
 
Date/Time
EDT
Temp
°C
App
Temp
°C
Dew
Point
Rel
Hum
%
Delta-T
°C
Wind Press
QNH
hPa
Press
MSL
hPa
Rain
since 9 am
mm
Dir
 
Spd
km/h
Gust
km/h
Spd
kts
Gust
kts
29/11:30pm 8.8 6.5 7.4 91 0.7 S 9 17 5 9 1017.2 1014.2 5.4
29/11:00pm 9.0 6.4 7.8 92 0.6 SSW 11 19 6 10 1017.6 1014.7 5.4
29/10:30pm 9.0 6.8 7.8 92 0.6 SSW 9 11 5 6 1017.9 1015.0 5.4
29/10:00pm 9.3 6.7 7.9 91 0.7 SSW 11 17 6 9 1017.7 1014.8 5.4
29/09:30pm 9.1 6.8 7.5 90 0.8 SSW 9 15 5 8 1017.7 1014.8 5.0
29/09:00pm 9.7 7.7 8.5 92 0.6 SSE 9 19 5 10 1017.6 1014.7 5.0
29/08:30pm 9.9 7.9 8.7 92 0.6 S 9 17 5 9 1017.6 1014.7 4.8
29/08:00pm 9.9 7.1 8.5 91 0.7 SSE 13 28 7 15 1017.5 1014.6 4.6
29/07:30pm 10.4 8.2 9.2 92 0.6 SSE 11 19 6 10 1017.3 1014.4 4.0
29/07:00pm 10.3 7.3 9.2 93 0.6 SSE 15 26 8 14 1017.2 1014.2 4.0
29/06:30pm 10.4 7.4 9.3 93 0.6 SE 15 24 8 13 1017.3 1014.4 4.0
29/06:00pm 10.6 6.6 9.0 90 0.8 SE 20 37 11 20 1017.0 1014.0 3.8
29/05:30pm 11.5 7.8 9.6 88 1.0 SE 19 28 10 15 1017.1 1014.1 3.2
29/05:00pm 12.7 9.5 10.1 84 1.4 SE 17 24 9 13 1017.2 1014.2 2.2
29/04:30pm 13.1 10.1 10.8 86 1.2 SE 17 28 9 15 1017.5 1014.6 2.2
29/04:00pm 13.3 9.3 9.2 76 2.2 SE 20 37 11 20 1017.6 1014.7 2.2
29/03:30pm 13.7 10.4 9.7 77 2.1 SSE 17 28 9 15 1017.6 1014.7 2.2
29/03:00pm 15.0 12.2 12.5 85 1.4 ESE 19 33 10 18 1017.4 1014.5 2.0
29/02:30pm 14.6 12.6 12.6 88 1.1 ESE 15 24 8 13 1017.7 1014.8 2.0
29/02:00pm 15.7 12.2 10.2 70 3.0 S 19 39 10 21 1017.5 1014.6 1.4
29/01:30pm 13.2 10.5 10.2 82 1.6 SSE 15 24 8 13 1018.2 1015.2 1.4
29/01:00pm 14.7 13.3 12.2 85 1.4 SSE 11 19 6 10 1018.3 1015.3 1.2
29/12:30pm 11.1 7.8 8.0 81 1.6 S 15 24 8 13 1018.8 1015.9 0.8
29/12:00pm 13.6 11.3 9.1 74 2.4 SSE 11 19 6 10 1018.8 1015.9 0.0
29/11:30am 13.7 10.8 9.6 76 2.2 SSW 15 24 8 13 1018.7 1015.8 0.0
29/11:00am 12.1 7.9 7.6 74 2.3 SSW 19 28 10 15 1019.2 1016.3 0.0
29/10:30am 12.7 9.4 8.2 74 2.3 S 15 28 8 15 1019.1 1016.2 0.0
29/10:00am 11.5 7.9 8.2 80 1.7 SSW 17 28 9 15 1019.2 1016.3 0.0
29/09:30am 11.5 9.4 9.8 89 0.9 SSE 11 17 6 9 1019.2 1016.3 0.0
29/09:00am 10.3 7.6 9.1 92 0.6 S 13 26 7 14 1019.2 1016.3 6.6
29/08:30am 9.5 7.8 8.4 93 0.6 S 7 13 4 7 1019.0 1016.1 6.4
29/08:00am 9.3 7.2 8.2 93 0.6 SSE 9 17 5 9 1018.7 1015.8 5.8
29/07:30am 9.1 7.4 8.3 95 0.4 SSW 7 9 4 5 1018.7 1015.8 5.8
29/07:00am 8.6 6.7 7.7 94 0.4 S 7 13 4 7 1018.5 1015.5 5.6
29/06:30am 8.4 6.1 7.5 94 0.4 S 9 13 5 7 1018.3 1015.3 5.2
29/06:00am 8.4 6.5 7.5 94 0.4 SSW 7 15 4 8 1018.1 1015.1 4.8
29/05:30am 8.5 6.6 7.7 95 0.4 S 7 13 4 7 1017.8 1014.9 4.8
29/05:00am 8.3 6.0 7.4 94 0.4 SSW 9 15 5 8 1017.8 1014.9 4.8
29/04:30am 8.4 5.7 7.5 94 0.4 SSW 11 17 6 9 1017.8 1014.9 4.6
29/04:00am 8.4 6.1 7.5 94 0.4 SSW 9 15 5 8 1018.1 1015.1 4.4
29/03:30am 8.2 5.8 7.1 93 0.5 SSW 9 17 5 9 1018.3 1015.3 4.4
29/03:00am 8.4 5.6 6.9 90 0.7 SSW 11 20 6 11 1018.5 1015.5 4.2
29/02:30am 8.7 5.9 6.8 88 0.9 SSW 11 15 6 8 1018.8 1015.9 4.2
29/02:00am 8.4 5.9 6.5 88 0.9 SSW 9 13 5 7 1019.0 1016.1 4.2
29/01:30am 8.4 5.9 6.4 87 1.0 SSE 9 13 5 7 1019.2 1016.3 4.2
29/01:00am 8.8 6.4 6.8 87 1.0 S 9 13 5 7 1019.3 1016.4 4.2
29/12:30am 8.9 6.5 6.9 87 1.0 SSW 9 11 5 6 1019.7 1016.7 4.2
29/12:00am 9.3 7.3 7.1 86 1.1 S 7 17 4 9 1019.9 1017.0 4.2
 
Date/Time
EDT
Temp
°C
App
Temp
°C
Dew
Point
Rel
Hum
%
Delta-T
°C
Wind Press
QNH
hPa
Press
MSL
hPa
Rain
since 9 am
mm
Dir
 
Spd
km/h
Gust
km/h
Spd
kts
Gust
kts
28/11:30pm 9.7 7.4 7.6 87 1.0 S 9 13 5 7 1020.0 1017.1 4.2
28/11:00pm 9.7 7.8 7.6 87 1.0 SSE 7 13 4 7 1020.1 1017.2 4.2
28/10:30pm 10.4 7.6 8.5 88 1.0 SSE 13 20 7 11 1020.3 1017.4 4.2
28/10:00pm 10.4 7.6 8.5 88 1.0 SSE 13 22 7 12 1020.3 1017.4 4.2
28/09:30pm 10.6 7.0 8.5 87 1.1 SE 17 26 9 14 1020.2 1017.3 4.2
28/09:00pm 10.6 7.0 8.5 87 1.1 SE 17 26 9 14 1019.9 1017.0 4.2
28/08:30pm 10.9 7.0 9.5 91 0.7 SE 20 32 11 17 1019.7 1016.7 4.2
28/08:00pm 11.1 7.5 10.0 93 0.6 SE 19 30 10 16 1019.4 1016.5 4.2
28/07:30pm 11.1 7.0 10.0 93 0.6 SE 22 37 12 20 1019.2 1016.3 4.2
28/07:00pm 11.7 8.6 10.4 92 0.7 SE 17 28 9 15 1019.1 1016.2 3.4
28/06:30pm 11.8 8.1 10.2 90 0.9 SE 20 32 11 17 1018.8 1015.9 3.0
28/06:00pm 12.1 8.1 10.3 89 1.0 SE 22 37 12 20 1018.7 1015.8 3.0
28/05:30pm 13.1 9.0 10.1 82 1.6 SE 22 33 12 18 1018.4 1015.4 2.4
28/05:00pm 13.3 10.8 11.0 86 1.3 SSE 15 28 8 15 1018.5 1015.5 2.0
28/04:30pm 14.1 12.0 11.1 82 1.6 SE 13 19 7 10 1018.6 1015.7 1.8
28/04:00pm 14.2 11.6 11.9 86 1.3 SSE 17 28 9 15 1018.6 1015.7 1.8
28/03:30pm 14.0 8.7 9.8 76 2.2 SE 28 44 15 24 1018.6 1015.7 1.0
28/03:00pm 17.4 14.7 13.5 78 2.3 SE 20 35 11 19 1018.4 1015.4 1.0
28/02:30pm 13.4 10.5 11.1 86 1.3 SE 17 30 9 16 1018.8 1015.9 1.0
28/02:00pm 15.6 12.5 10.2 70 2.9 SE 17 24 9 13 1018.6 1015.7 0.6
28/01:30pm 17.6 15.2 12.5 72 2.9 SE 17 35 9 19 1018.8 1015.9 0.6
28/01:00pm 15.6 13.2 12.5 82 1.8 SE 17 24 9 13 1019.1 1016.2 0.6
28/12:30pm 15.3 12.9 11.3 77 2.2 SE 15 24 8 13 1019.0 1016.1 0.6
28/12:00pm 15.8 13.3 13.6 87 1.3 SE 19 32 10 17 1019.3 1016.4 0.6
28/11:30am 12.9 9.7 11.3 90 0.9 SE 19 30 10 16 1019.4 1016.5 0.6
28/11:00am 13.4 10.7 11.8 90 0.9 SE 17 26 9 14 1019.4 1016.5 0.6
28/10:30am 12.4 10.6 11.0 91 0.8 SSE 11 20 6 11 1019.4 1016.5 0.4
28/10:00am 12.5 10.8 11.2 92 0.7 SSE 11 17 6 9 1019.2 1016.3 0.4
28/09:30am 12.2 10.9 11.3 94 0.5 SSE 9 17 5 9 1019.1 1016.2 0.4
28/09:00am 11.7 9.9 10.8 94 0.5 SSE 11 17 6 9 1019.0 1016.1 0.6
28/08:30am 11.6 10.2 10.8 95 0.4 SE 9 17 5 9 1018.8 1015.9 0.6
28/08:00am 11.2 9.7 10.4 95 0.4 SE 9 13 5 7 1018.5 1015.5 0.6
28/07:30am 11.1 10.1 10.3 95 0.4 SSE 6 11 3 6 1018.3 1015.3 0.6
28/07:00am 11.0 9.8 10.4 96 0.3 S 7 15 4 8 1017.8 1014.9 0.6
28/06:30am 10.7 9.4 10.1 96 0.3 SSE 7 13 4 7 1017.6 1014.7 0.6
28/06:00am 10.6 8.9 10.0 96 0.3 S 9 17 5 9 1017.4 1014.5 0.6
28/05:30am 10.4 8.7 9.8 96 0.3 S 9 19 5 10 1017.2 1014.2 0.6
28/05:00am 10.3 8.6 9.7 96 0.3 SSW 9 17 5 9 1017.0 1014.0 0.6
28/04:30am 10.4 9.1 9.8 96 0.3 SSW 7 11 4 6 1017.1 1014.1 0.6
28/04:00am 10.3 8.6 9.7 96 0.3 SSW 9 15 5 8 1016.9 1013.9 0.4
28/03:30am 10.3 8.9 9.7 96 0.3 SSW 7 11 4 6 1017.0 1014.0 0.4
28/03:00am 10.3 8.5 9.5 95 0.4 S 9 13 5 7 1017.2 1014.2 0.4
28/02:30am 10.3 8.9 9.5 95 0.4 S 7 13 4 7 1017.4 1014.5 0.4
28/02:00am 10.3 8.9 9.5 95 0.4 SSW 7 15 4 8 1017.6 1014.7 0.0
28/01:30am 10.4 9.0 9.5 94 0.5 S 7 17 4 9 1017.6 1014.7 0.0
28/01:00am 10.4 9.0 9.5 94 0.5 S 7 13 4 7 1017.8 1014.9 0.0
28/12:30am 10.4 9.0 9.5 94 0.5 SSW 7 11 4 6 1017.9 1015.0 0.0
28/12:00am 10.4 8.6 9.5 94 0.5 S 9 13 5 7 1017.9 1015.0 0.0
 
Date/Time
EDT
Temp
°C
App
Temp
°C
Dew
Point
Rel
Hum
%
Delta-T
°C
Wind Press
QNH
hPa
Press
MSL
hPa
Rain
since 9 am
mm
Dir
 
Spd
km/h
Gust
km/h
Spd
kts
Gust
kts
27/11:30pm 10.5 8.3 9.4 93 0.6 S 11 17 6 9 1018.1 1015.1 0.0

Other Formats:

Comma delimited format used in spreadsheet applications
http://www.bom.gov.au/fwo/IDV60801/IDV60801.94908.axf

JavaScript Object Notation format (JSON) in row-major order
http://www.bom.gov.au/fwo/IDV60801/IDV60801.94908.json